createdAt,value
2023-01-26T00:00:21.800Z,19.2
2023-01-26T00:05:13.876Z,19.2
2023-01-26T00:10:15.707Z,19.1
2023-01-26T00:15:14.795Z,19.1
2023-01-26T00:20:25.617Z,19.1
2023-01-26T00:25:18.444Z,19.1
2023-01-26T00:30:20.308Z,19.1
2023-01-26T00:35:14.248Z,19.1
2023-01-26T00:40:20.076Z,19
2023-01-26T00:45:21.850Z,19
2023-01-26T00:50:17.648Z,19
2023-01-26T00:55:20.412Z,19
2023-01-26T01:00:16.284Z,19
2023-01-26T01:05:22.286Z,19
2023-01-26T01:10:14.072Z,19
2023-01-26T01:15:14.154Z,19
2023-01-26T01:20:18.079Z,18.9
2023-01-26T01:25:13.888Z,18.9
2023-01-26T01:30:15.753Z,18.9
2023-01-26T01:35:15.584Z,18.9
2023-01-26T01:40:16.678Z,18.9
2023-01-26T01:45:18.620Z,18.9
2023-01-26T01:50:24.458Z,18.9
2023-01-26T01:55:20.247Z,18.9
2023-01-26T02:00:14.343Z,18.9
2023-01-26T02:05:20.129Z,18.9
2023-01-26T02:10:28.010Z,18.8
2023-01-26T02:15:13.816Z,18.8
2023-01-26T02:20:15.799Z,18.8
2023-01-26T02:25:15.610Z,18.8
2023-01-26T02:30:16.822Z,18.8
2023-01-26T02:35:22.114Z,18.8
2023-01-26T02:40:19.919Z,18.8
2023-01-26T02:45:17.764Z,18.8
2023-01-26T02:50:19.675Z,18.8
2023-01-26T02:55:20.522Z,18.8
2023-01-26T03:00:20.629Z,18.7
2023-01-26T03:05:16.514Z,18.7
2023-01-26T03:10:26.279Z,18.7
2023-01-26T03:15:18.306Z,18.7
2023-01-26T03:20:18.100Z,18.7
2023-01-26T03:25:13.888Z,18.7
2023-01-26T03:30:15.858Z,18.7
2023-01-26T03:35:16.110Z,18.7
2023-01-26T03:40:21.942Z,18.7
2023-01-26T03:45:15.787Z,18.7
2023-01-26T03:50:19.665Z,18.7
2023-01-26T03:55:14.671Z,18.7
2023-01-26T04:00:14.765Z,18.6
2023-01-26T04:05:13.546Z,18.7
2023-01-26T04:10:14.282Z,18.6
2023-01-26T04:15:18.247Z,18.6
2023-01-26T04:20:24.279Z,18.6
2023-01-26T04:25:20.306Z,18.6
2023-01-26T04:30:15.254Z,18.6
2023-01-26T04:35:16.225Z,18.6
2023-01-26T04:40:24.069Z,18.5
2023-01-26T04:45:17.946Z,18.5
2023-01-26T04:50:15.776Z,18.5
2023-01-26T04:55:18.631Z,18.5
2023-01-26T05:00:13.832Z,18.5
2023-01-26T05:05:18.231Z,18.5
2023-01-26T05:10:15.794Z,18.5
2023-01-26T05:15:24.357Z,18.5
2023-01-26T05:20:21.158Z,18.5
2023-01-26T05:25:22.430Z,18.6
2023-01-26T05:30:20.459Z,18.8
2023-01-26T05:35:16.254Z,18.8
2023-01-26T05:40:20.031Z,18.9
2023-01-26T05:45:23.829Z,18.9
2023-01-26T05:50:19.713Z,18.9
2023-01-26T05:55:24.398Z,18.9
2023-01-26T06:00:15.353Z,18.9
2023-01-26T06:05:17.803Z,19
2023-01-26T06:10:13.943Z,19
2023-01-26T06:15:26.201Z,19
2023-01-26T06:20:24.021Z,19
2023-01-26T06:25:17.809Z,19.1
2023-01-26T06:30:18.391Z,19
2023-01-26T06:35:18.278Z,19
2023-01-26T06:40:16.928Z,19.1
2023-01-26T06:45:15.275Z,19.1
2023-01-26T06:50:22.087Z,19.1
2023-01-26T06:55:17.998Z,19
2023-01-26T07:00:17.667Z,19
2023-01-26T07:05:16.314Z,19
2023-01-26T07:10:16.096Z,19
2023-01-26T07:15:31.116Z,19
2023-01-26T07:20:19.944Z,19
2023-01-26T07:25:19.704Z,19
2023-01-26T07:30:15.365Z,19
2023-01-26T07:35:20.188Z,19
2023-01-26T07:40:20.092Z,19
2023-01-26T07:45:17.706Z,19
2023-01-26T07:50:21.564Z,19
2023-01-26T07:55:16.251Z,19
2023-01-26T08:00:20.052Z,19
2023-01-26T08:05:22.106Z,19
2023-01-26T08:10:22.129Z,19
2023-01-26T08:15:25.620Z,19
2023-01-26T08:20:20.709Z,19
2023-01-26T08:25:16.462Z,19
2023-01-26T08:30:21.732Z,19
2023-01-26T08:35:20.552Z,19
2023-01-26T08:40:22.306Z,19
2023-01-26T08:45:18.850Z,19
2023-01-26T08:50:15.695Z,19
2023-01-26T08:55:14.523Z,19
2023-01-26T09:00:21.309Z,19
2023-01-26T09:05:23.892Z,19
2023-01-26T09:10:15.860Z,19
2023-01-26T09:15:15.248Z,19
2023-01-26T09:20:20.071Z,19
2023-01-26T09:25:17.881Z,19
2023-01-26T09:30:19.369Z,19
2023-01-26T09:35:20.506Z,19
2023-01-26T09:40:22.280Z,19
2023-01-26T09:45:15.946Z,19
2023-01-26T09:50:14.699Z,19
2023-01-26T09:55:16.503Z,19
2023-01-26T10:00:20.039Z,19
2023-01-26T10:05:17.613Z,19
2023-01-26T10:10:26.457Z,19
2023-01-26T10:15:16.870Z,19
2023-01-26T10:20:17.904Z,19
2023-01-26T10:25:17.647Z,19
2023-01-26T10:30:25.284Z,19
2023-01-26T10:35:14.443Z,19
2023-01-26T10:40:20.274Z,19
2023-01-26T10:45:21.540Z,19
2023-01-26T10:50:18.892Z,19
2023-01-26T10:55:19.640Z,19
2023-01-26T11:00:16.178Z,19
2023-01-26T11:05:16.541Z,19
2023-01-26T11:10:14.427Z,19
